Time;durP1;ratioP1;P1;durP2;ratioP2;P2;SDS_P1;SDS_P2;PMS_P1;PMS_P2;Temp;Humidity;BMP_temperature;BMP_pressure;BME280_temperature;BME280_humidity;BME280_pressure;Samples;Min_cycle;Max_cycle;Signal;HPM_P1;HPM_P2
2024/04/11 00:00:20;;;;;;;23.73;2.57;;;4.60;99.90;;;;;;1867060;75;25244;-88
2024/04/11 00:03:09;;;;;;;19.83;2.60;;;4.60;99.90;;;;;;1856872;76;25202;-88
2024/04/11 00:05:58;;;;;;;19.90;2.53;;;4.70;99.90;;;;;;1862656;76;26672;-89
2024/04/11 00:08:47;;;;;;;19.43;2.63;;;4.60;99.90;;;;;;1837429;77;25344;-87
2024/04/11 00:11:36;;;;;;;19.13;2.50;;;4.60;99.90;;;;;;1862389;75;25259;-87
2024/04/11 00:14:25;;;;;;;21.43;2.60;;;4.60;99.90;;;;;;1825141;77;25717;-88
2024/04/11 00:17:13;;;;;;;17.83;2.63;;;4.60;99.90;;;;;;1899690;75;25883;-88
2024/04/11 00:20:03;;;;;;;24.77;2.50;;;4.60;99.90;;;;;;1877623;75;25783;-88
2024/04/11 00:22:53;;;;;;;18.10;2.83;;;4.60;99.90;;;;;;1873748;76;25261;-88
2024/04/11 00:25:45;;;;;;;14.63;2.57;;;4.60;99.90;;;;;;1878438;75;25362;-89
2024/04/11 00:28:33;;;;;;;25.30;2.70;;;4.60;99.90;;;;;;1830180;78;25310;-88
2024/04/11 00:34:15;;;;;;;26.07;3.20;;;4.60;99.90;;;;;;1944364;72;27427;-89
2024/04/11 00:37:05;;;;;;;30.60;3.37;;;4.60;99.90;;;;;;1931243;73;25183;-88
2024/04/11 00:42:34;;;;;;;12.70;2.23;;;4.50;99.90;;;;;;1939497;72;27105;-88
2024/04/11 00:45:23;;;;;;;18.47;3.00;;;4.50;99.90;;;;;;1909552;75;25255;-88
2024/04/11 00:48:11;;;;;;;27.10;2.50;;;4.60;99.90;;;;;;1874039;75;25230;-89
2024/04/11 00:51:01;;;;;;;28.13;2.80;;;4.50;99.90;;;;;;1837301;77;25273;-88
2024/04/11 00:53:56;;;;;;;22.20;3.27;;;4.50;99.90;;;;;;1868954;75;25228;-89
2024/04/11 00:56:40;;;;;;;19.90;2.50;;;4.60;99.90;;;;;;1806789;78;25238;-89
2024/04/11 00:59:29;;;;;;;26.43;3.10;;;4.60;99.90;;;;;;1811321;79;25284;-89
2024/04/11 01:02:18;;;;;;;23.40;2.87;;;4.70;99.90;;;;;;1806285;77;25270;-89
2024/04/11 01:05:07;;;;;;;23.57;2.63;;;4.70;99.90;;;;;;1848778;76;25264;-89
2024/04/11 01:07:56;;;;;;;16.00;2.27;;;4.60;99.90;;;;;;1811538;79;25302;-89
2024/04/11 01:13:29;;;;;;;22.93;2.23;;;4.70;99.90;;;;;;1944536;72;27430;-89
2024/04/11 01:16:18;;;;;;;27.00;2.67;;;4.70;99.90;;;;;;1931505;73;25226;-89
2024/04/11 01:21:53;;;;;;;24.27;2.37;;;4.70;99.90;;;;;;1963272;72;27477;-88
2024/04/11 01:24:42;;;;;;;16.90;2.53;;;4.70;99.90;;;;;;1941785;73;25761;-89
2024/04/11 01:27:30;;;;;;;23.83;2.57;;;4.80;99.90;;;;;;1936595;73;25227;-89
2024/04/11 01:30:20;;;;;;;17.97;2.57;;;4.70;99.90;;;;;;1939552;73;25169;-89
2024/04/11 01:33:10;;;;;;;24.60;2.77;;;4.60;99.90;;;;;;1931084;73;25291;-89
2024/04/11 01:35:59;;;;;;;30.10;2.80;;;4.60;99.90;;;;;;1932935;73;25726;-89
2024/04/11 01:38:48;;;;;;;23.97;2.37;;;4.50;99.90;;;;;;1929636;72;25866;-87
2024/04/11 01:41:38;;;;;;;23.60;2.40;;;4.50;99.90;;;;;;1920495;73;25706;-87
2024/04/11 01:44:27;;;;;;;15.07;2.10;;;4.40;99.90;;;;;;1923285;73;25733;-87
2024/04/11 01:47:16;;;;;;;21.97;3.50;;;4.40;99.90;;;;;;1923729;73;25299;-88
2024/04/11 01:50:06;;;;;;;22.10;2.50;;;4.40;99.90;;;;;;1894789;73;25238;-86
2024/04/11 01:52:55;;;;;;;35.57;3.70;;;4.30;99.90;;;;;;1890912;75;25609;-87
2024/04/11 01:58:24;;;;;;;25.00;3.57;;;4.30;99.90;;;;;;1909321;74;27243;-88
2024/04/11 02:01:17;;;;;;;23.63;2.70;;;4.30;99.90;;;;;;1848465;76;25263;-88
2024/04/11 02:04:05;;;;;;;23.10;2.53;;;4.40;99.90;;;;;;1836726;76;25304;-88
2024/04/11 02:06:53;;;;;;;14.90;2.77;;;4.40;99.90;;;;;;1844186;76;25268;-88
2024/04/11 02:09:43;;;;;;;25.83;2.83;;;4.40;99.90;;;;;;1850856;76;25646;-89
2024/04/11 02:12:32;;;;;;;26.10;3.00;;;4.50;99.90;;;;;;1843913;76;25220;-89
2024/04/11 02:15:20;;;;;;;21.83;2.43;;;4.50;99.90;;;;;;1844243;77;25668;-89
2024/04/11 02:18:10;;;;;;;18.27;2.43;;;4.50;99.90;;;;;;1842070;76;25219;-89
2024/04/11 02:20:59;;;;;;;29.30;2.90;;;4.50;99.90;;;;;;1846566;76;25713;-89
2024/04/11 02:23:48;;;;;;;19.77;2.70;;;4.50;99.90;;;;;;1844873;76;25247;-89
2024/04/11 02:26:37;;;;;;;26.73;2.07;;;4.50;99.90;;;;;;1834498;76;25242;-88
2024/04/11 02:29:27;;;;;;;16.27;2.07;;;4.60;99.90;;;;;;1833907;76;25323;-89
2024/04/11 02:32:15;;;;;;;20.67;2.40;;;4.50;99.90;;;;;;1846937;76;25262;-89
2024/04/11 02:35:05;;;;;;;19.97;2.20;;;4.50;99.90;;;;;;1834538;76;25302;-89
2024/04/11 02:37:54;;;;;;;15.47;2.40;;;4.50;99.90;;;;;;1846155;76;25270;-87
2024/04/11 02:40:43;;;;;;;23.20;3.00;;;4.60;99.90;;;;;;1833056;76;25325;-89
2024/04/11 02:43:32;;;;;;;16.20;2.13;;;4.60;99.90;;;;;;1837238;76;25263;-89
2024/04/11 02:46:22;;;;;;;19.90;2.43;;;4.70;99.90;;;;;;1839916;76;25251;-89
2024/04/11 02:51:56;;;;;;;18.53;2.50;;;4.70;99.90;;;;;;1938902;72;27352;-89
2024/04/11 02:54:45;;;;;;;18.73;2.20;;;4.80;99.90;;;;;;1900972;75;25360;-89
2024/04/11 02:57:34;;;;;;;19.83;2.60;;;4.80;99.90;;;;;;1886252;73;25253;-89
2024/04/11 03:00:22;;;;;;;19.17;2.63;;;4.80;99.90;;;;;;1911860;75;25262;-89
2024/04/11 03:03:11;;;;;;;22.00;2.60;;;4.70;99.90;;;;;;1889995;73;25265;-89
2024/04/11 03:06:09;;;;;;;23.87;2.80;;;4.70;99.90;;;;;;1890956;73;25261;-89
2024/04/11 03:11:44;;;;;;;20.87;3.10;;;4.80;99.90;;;;;;1966341;72;26855;-89
2024/04/11 03:14:33;;;;;;;23.40;2.83;;;4.80;99.90;;;;;;1939913;73;25316;-89
2024/04/11 03:17:22;;;;;;;18.77;2.30;;;4.70;99.90;;;;;;1945083;73;25287;-88
2024/04/11 03:20:17;;;;;;;19.93;2.53;;;4.70;99.90;;;;;;1944988;73;25216;-87
2024/04/11 03:23:02;;;;;;;24.40;2.20;;;4.60;99.90;;;;;;1919139;72;25223;-87
2024/04/11 03:28:33;;;;;;;23.13;2.77;;;4.70;99.90;;;;;;1952266;72;26975;-89
2024/04/11 03:31:22;;;;;;;13.53;2.10;;;4.60;99.90;;;;;;1904184;74;25295;-89
2024/04/11 03:34:10;;;;;;;20.83;1.90;;;4.60;99.90;;;;;;1913591;74;25238;-89
2024/04/11 03:36:59;;;;;;;20.10;2.93;;;4.40;99.90;;;;;;1917413;74;25288;-88
2024/04/11 03:39:48;;;;;;;18.77;2.50;;;4.50;99.90;;;;;;1916830;74;25243;-89
2024/04/11 03:42:37;;;;;;;16.47;2.20;;;4.50;99.90;;;;;;1917724;74;25226;-88
2024/04/11 03:45:26;;;;;;;22.93;2.20;;;4.50;99.90;;;;;;1904564;74;25305;-89
2024/04/11 03:48:15;;;;;;;22.57;2.60;;;4.40;99.90;;;;;;1909194;74;25332;-89
2024/04/11 03:51:13;;;;;;;18.57;2.60;;;4.40;99.90;;;;;;1906584;73;25180;-89
2024/04/11 03:54:02;;;;;;;25.47;2.37;;;4.40;99.90;;;;;;1902287;74;25294;-89
2024/04/11 03:56:51;;;;;;;31.50;3.13;;;4.50;99.90;;;;;;1889497;75;25349;-89
2024/04/11 03:59:39;;;;;;;24.83;2.73;;;4.60;99.90;;;;;;1891015;75;25799;-87
2024/04/11 04:05:15;;;;;;;18.83;2.50;;;4.60;99.90;;;;;;1944094;72;27027;-87
2024/04/11 04:08:04;;;;;;;21.57;2.97;;;4.60;99.90;;;;;;1939923;73;25669;-87
2024/04/11 04:10:53;;;;;;;18.13;2.20;;;4.60;99.90;;;;;;1935205;73;25764;-89
2024/04/11 04:13:42;;;;;;;33.77;3.13;;;4.60;99.90;;;;;;1921849;73;25531;-89
2024/04/11 04:16:30;;;;;;;13.93;3.13;;;4.60;99.90;;;;;;1932286;73;25255;-87
2024/04/11 04:19:19;;;;;;;29.07;2.87;;;4.60;99.90;;;;;;1922086;73;25180;-87
2024/04/11 04:22:13;;;;;;;22.47;2.70;;;4.70;99.90;;;;;;1926538;73;25681;-88
2024/04/11 04:24:59;;;;;;;22.63;3.10;;;4.70;99.90;;;;;;1936491;73;25274;-87
2024/04/11 04:27:49;;;;;;;22.93;2.83;;;4.70;99.90;;;;;;1937578;73;25339;-88
2024/04/11 04:30:39;;;;;;;20.37;2.93;;;4.70;99.90;;;;;;1936173;73;26688;-87
2024/04/11 04:33:29;;;;;;;22.47;3.10;;;4.60;99.90;;;;;;1937409;73;25824;-90
2024/04/11 04:36:19;;;;;;;24.70;3.10;;;4.40;99.90;;;;;;1916233;73;25280;-89
2024/04/11 04:39:13;;;;;;;23.83;3.20;;;4.40;99.90;;;;;;1897129;75;25684;-90
2024/04/11 04:41:59;;;;;;;25.80;3.20;;;4.40;99.90;;;;;;1899508;74;25270;-88
2024/04/11 04:44:50;;;;;;;25.73;3.30;;;4.40;99.90;;;;;;1880502;75;25714;-88
2024/04/11 04:47:40;;;;;;;19.90;3.23;;;4.40;99.90;;;;;;1880868;75;25275;-89
2024/04/11 04:50:28;;;;;;;24.60;3.37;;;4.40;99.90;;;;;;1899896;75;25230;-88
2024/04/11 04:53:16;;;;;;;19.77;3.10;;;4.50;99.90;;;;;;1900264;75;25350;-89
2024/04/11 04:56:07;;;;;;;24.33;2.93;;;4.40;99.90;;;;;;1861735;76;25267;-89
2024/04/11 04:58:55;;;;;;;15.27;2.40;;;4.40;99.90;;;;;;1898144;75;25238;-88
2024/04/11 05:05:00;;;;;;;23.17;2.80;;;4.40;99.90;;;;;;1966344;71;27316;-90
2024/04/11 05:10:28;;;;;;;16.33;2.50;;;4.40;99.90;;;;;;1945682;72;26992;-89
2024/04/11 05:13:18;;;;;;;18.17;2.73;;;4.40;99.90;;;;;;1901652;75;25304;-90
2024/04/11 05:16:07;;;;;;;17.70;2.83;;;4.30;99.90;;;;;;1878196;75;25225;-89
2024/04/11 05:18:56;;;;;;;20.00;2.80;;;4.30;99.90;;;;;;1866064;75;25239;-90
2024/04/11 05:21:46;;;;;;;19.93;2.80;;;4.30;99.90;;;;;;1887472;75;25312;-89
2024/04/11 05:24:35;;;;;;;18.27;2.83;;;4.30;99.90;;;;;;1868211;76;25303;-90
2024/04/11 05:27:23;;;;;;;14.57;2.60;;;4.40;99.90;;;;;;1873973;75;25223;-88
2024/04/11 05:30:13;;;;;;;17.83;2.17;;;4.50;99.90;;;;;;1837020;76;25378;-88
2024/04/11 05:33:04;;;;;;;20.97;3.00;;;4.50;99.90;;;;;;1840535;76;25337;-88
2024/04/11 05:35:52;;;;;;;13.50;2.47;;;4.40;99.90;;;;;;1841570;77;25369;-86
2024/04/11 05:38:41;;;;;;;18.93;2.53;;;4.40;99.90;;;;;;1907799;73;25225;-88
2024/04/11 05:41:30;;;;;;;12.77;1.90;;;4.40;99.90;;;;;;1877569;75;25273;-88
2024/04/11 05:47:07;;;;;;;11.57;2.50;;;4.40;99.90;;;;;;1906073;74;27118;-89
2024/04/11 05:49:55;;;;;;;15.30;2.47;;;4.40;99.90;;;;;;1855782;76;25234;-89
2024/04/11 05:52:43;;;;;;;17.97;2.10;;;4.40;99.90;;;;;;1866729;76;25237;-89
2024/04/11 05:55:32;;;;;;;11.63;2.10;;;4.50;99.90;;;;;;1846533;76;25304;-89
2024/04/11 05:58:20;;;;;;;19.67;2.57;;;4.50;99.90;;;;;;1834242;76;25298;-89
2024/04/11 06:01:09;;;;;;;10.60;2.17;;;4.50;99.90;;;;;;1837605;77;26015;-89
2024/04/11 06:03:59;;;;;;;15.60;2.67;;;4.60;99.90;;;;;;1831965;77;25205;-89
2024/04/11 06:06:48;;;;;;;13.10;1.90;;;4.70;99.90;;;;;;1806427;78;25243;-88
2024/04/11 06:09:39;;;;;;;13.70;2.13;;;4.70;99.90;;;;;;1792107;78;25343;-89
2024/04/11 06:12:27;;;;;;;8.67;1.93;;;4.70;99.90;;;;;;1802447;78;25205;-88
2024/04/11 06:15:19;;;;;;;11.83;2.00;;;4.70;99.90;;;;;;1772552;79;25271;-88
2024/04/11 06:18:09;;;;;;;10.17;2.27;;;4.80;99.90;;;;;;1773557;79;25282;-88
2024/04/11 06:20:59;;;;;;;13.80;2.30;;;4.80;99.90;;;;;;1777619;79;25367;-88
2024/04/11 06:23:48;;;;;;;19.40;2.43;;;4.80;99.90;;;;;;1786931;79;25247;-89
2024/04/11 06:29:22;;;;;;;19.23;2.33;;;4.90;99.90;;;;;;1945433;72;27450;-88
2024/04/11 06:32:07;;;;;;;19.00;2.63;;;4.90;99.90;;;;;;1938976;72;25265;-87
2024/04/11 06:37:35;;;;;;;9.10;2.07;;;5.10;99.90;;;;;;1957814;72;27617;-88
2024/04/11 06:40:23;;;;;;;13.60;2.43;;;5.10;99.90;;;;;;1937433;73;25574;-88
2024/04/11 06:43:13;;;;;;;13.20;2.10;;;5.10;99.90;;;;;;1929042;72;25165;-87
2024/04/11 06:48:46;;;;;;;11.10;1.93;;;5.20;99.90;;;;;;1948111;72;26919;-88
2024/04/11 06:51:37;;;;;;;15.43;2.27;;;5.20;99.90;;;;;;1920878;73;25401;-88
2024/04/11 06:54:27;;;;;;;13.97;2.07;;;5.20;99.90;;;;;;1922499;73;25298;-89
2024/04/11 06:57:15;;;;;;;9.57;2.17;;;5.10;99.90;;;;;;1911116;73;25262;-89
2024/04/11 07:00:03;;;;;;;12.27;2.40;;;5.10;99.90;;;;;;1915067;75;25227;-89
2024/04/11 07:02:54;;;;;;;16.43;2.47;;;5.00;99.90;;;;;;1891341;75;25257;-89
2024/04/11 07:05:55;;;;;;;7.30;2.30;;;5.00;99.90;;;;;;1915723;73;25247;-88
2024/04/11 07:08:43;;;;;;;16.97;2.57;;;5.00;99.90;;;;;;1910529;73;25237;-88
2024/04/11 07:11:39;;;;;;;13.27;2.37;;;4.90;99.90;;;;;;1904365;74;25670;-88
2024/04/11 07:17:12;;;;;;;14.47;2.77;;;4.90;99.90;;;;;;1942313;72;27065;-88
2024/04/11 07:20:08;;;;;;;10.27;2.53;;;4.90;99.90;;;;;;1929515;73;25295;-88
2024/04/11 07:22:54;;;;;;;16.47;2.23;;;4.90;99.90;;;;;;1916591;75;25296;-88
2024/04/11 07:25:42;;;;;;;15.70;2.40;;;4.90;99.90;;;;;;1916467;75;25285;-91
2024/04/11 07:28:31;;;;;;;13.13;2.60;;;4.90;99.90;;;;;;1916558;73;25216;-87
2024/04/11 07:31:21;;;;;;;10.27;2.40;;;4.90;99.90;;;;;;1919516;73;25287;-87
2024/04/11 07:34:10;;;;;;;7.73;1.50;;;4.90;99.90;;;;;;1923416;73;25196;-90
2024/04/11 07:36:59;;;;;;;15.47;2.63;;;4.90;99.90;;;;;;1928917;73;25225;-89
2024/04/11 07:39:47;;;;;;;21.73;3.07;;;4.90;99.90;;;;;;1918898;73;25277;-89
2024/04/11 07:42:54;;;;;;;11.37;2.90;;;5.00;99.90;;;;;;1928240;73;25765;-89
2024/04/11 07:45:40;;;;;;;15.27;2.80;;;5.00;99.90;;;;;;1927026;73;25210;-88
2024/04/11 07:48:32;;;;;;;17.37;2.80;;;5.00;99.90;;;;;;1916465;73;25260;-88
2024/04/11 07:51:20;;;;;;;9.43;2.87;;;5.10;99.90;;;;;;1922378;73;25183;-88
2024/04/11 07:54:13;;;;;;;9.90;2.70;;;5.10;99.90;;;;;;1915142;73;25315;-88
2024/04/11 07:56:59;;;;;;;14.63;2.60;;;5.10;99.90;;;;;;1896270;75;25648;-89
2024/04/11 08:02:38;;;;;;;14.00;2.30;;;5.10;99.90;;;;;;1941525;72;27106;-88
2024/04/11 08:05:28;;;;;;;7.00;2.73;;;5.10;99.90;;;;;;1942788;73;25269;-88
2024/04/11 08:11:10;;;;;;;9.10;2.67;;;5.20;99.90;;;;;;1947084;72;27627;-88
2024/04/11 08:16:41;;;;;;;7.83;2.43;;;5.20;99.90;;;;;;1933152;72;27244;-89
2024/04/11 08:19:30;;;;;;;10.90;2.60;;;5.20;99.90;;;;;;1927809;73;25215;-89
2024/04/11 08:22:22;;;;;;;10.40;2.70;;;5.30;99.90;;;;;;1929572;73;25231;-89
2024/04/11 08:25:12;;;;;;;15.03;2.10;;;5.30;99.90;;;;;;1943282;72;25219;-89
2024/04/11 08:28:00;;;;;;;5.73;2.23;;;5.40;99.90;;;;;;1934506;73;25257;-89
2024/04/11 08:30:51;;;;;;;9.73;2.60;;;5.40;99.90;;;;;;1917337;73;25220;-89
2024/04/11 08:33:39;;;;;;;9.23;2.77;;;5.40;99.90;;;;;;1925782;72;25281;-89
2024/04/11 08:36:29;;;;;;;4.30;2.60;;;5.40;99.90;;;;;;1917114;73;25224;-87
2024/04/11 08:39:17;;;;;;;6.33;2.30;;;5.40;99.90;;;;;;1923483;73;25628;-88
2024/04/11 08:42:08;;;;;;;8.40;3.00;;;5.30;99.90;;;;;;1927281;72;25234;-88
2024/04/11 08:44:57;;;;;;;16.10;3.07;;;5.30;99.90;;;;;;1926348;73;25718;-88
2024/04/11 08:50:39;;;;;;;4.17;2.40;;;5.30;99.90;;;;;;1951307;72;27477;-89
2024/04/11 08:56:18;;;;;;;8.27;3.00;;;5.20;99.90;;;;;;1956737;72;27055;-89
2024/04/11 08:59:09;;;;;;;4.37;2.10;;;5.20;99.90;;;;;;1943771;72;25273;-89
2024/04/11 09:01:58;;;;;;;5.80;2.93;;;5.20;99.90;;;;;;1934699;73;25233;-89
2024/04/11 09:04:46;;;;;;;6.47;3.20;;;5.10;99.90;;;;;;1948380;73;25248;-87
2024/04/11 09:07:34;;;;;;;4.33;2.67;;;5.10;99.90;;;;;;1938557;73;25222;-89
2024/04/11 09:10:24;;;;;;;8.23;3.43;;;5.10;99.90;;;;;;1952839;73;25302;-87
2024/04/11 09:13:17;;;;;;;4.97;2.97;;;5.20;99.90;;;;;;1945667;73;25203;-89
2024/04/11 09:16:06;;;;;;;6.50;2.90;;;5.20;99.90;;;;;;1946911;73;25200;-89
2024/04/11 09:19:04;;;;;;;4.83;2.93;;;5.10;99.90;;;;;;1937564;73;25198;-89
2024/04/11 09:21:53;;;;;;;9.27;3.53;;;5.10;99.90;;;;;;1936842;73;25231;-89
2024/04/11 09:24:44;;;;;;;8.97;3.47;;;5.10;99.90;;;;;;1935359;73;25165;-89
2024/04/11 09:27:35;;;;;;;3.67;2.77;;;5.10;99.90;;;;;;1929348;73;25164;-88
2024/04/11 09:30:26;;;;;;;6.23;2.97;;;5.10;99.90;;;;;;1927430;73;25279;-87
2024/04/11 09:33:16;;;;;;;8.90;3.30;;;5.10;99.90;;;;;;1932134;73;25227;-87
2024/04/11 09:52:48;;;;;;;5.13;2.77;;;5.20;99.90;;;;;;1951381;71;27070;-87
2024/04/11 09:55:37;;;;;;;4.63;3.07;;;5.40;99.90;;;;;;1919559;73;25344;-90
2024/04/11 09:58:28;;;;;;;4.60;2.40;;;5.60;99.90;;;;;;1879363;76;25294;-88
2024/04/11 10:01:29;;;;;;;3.90;1.93;;;5.70;99.90;;;;;;1932947;73;25698;-87
2024/04/11 10:04:24;;;;;;;1.70;1.60;;;5.70;99.90;;;;;;1876814;76;26024;-87
2024/04/11 10:07:16;;;;;;;3.10;1.70;;;5.70;99.90;;;;;;1875950;76;25285;-87
2024/04/11 10:15:21;;;;;;;4.47;2.40;;;5.80;99.90;;;;;;1982415;71;26254;-88
2024/04/11 10:18:11;;;;;;;7.07;1.80;;;6.20;99.90;;;;;;1985889;72;25232;-89
2024/04/11 10:23:53;;;;;;;5.17;2.10;;;6.70;99.90;;;;;;1954650;72;26997;-89
2024/04/11 10:41:08;;;;;;;6.13;3.23;;;6.80;99.90;;;;;;1844802;75;26928;-89
2024/04/11 10:43:56;;;;;;;8.23;2.77;;;6.80;99.90;;;;;;1833065;78;25264;-89
2024/04/11 10:46:45;;;;;;;2.83;2.30;;;6.80;99.90;;;;;;1764683;81;25400;-90
2024/04/11 10:49:34;;;;;;;3.53;2.40;;;6.90;99.90;;;;;;1769800;79;25835;-89
2024/04/11 10:52:24;;;;;;;2.97;2.20;;;7.00;99.90;;;;;;1813041;77;25783;-88
2024/04/11 10:58:13;;;;;;;2.27;1.90;;;7.10;99.90;;;;;;1967831;71;27054;-87
2024/04/11 11:01:08;;;;;;;2.00;1.80;;;7.10;99.90;;;;;;1911891;75;25192;-88
2024/04/11 11:03:58;;;;;;;3.27;2.00;;;7.00;99.90;;;;;;1909460;74;25265;-88
2024/04/11 11:09:30;;;;;;;1.97;1.67;;;7.20;99.90;;;;;;1933854;72;26791;-89
2024/04/11 11:12:23;;;;;;;2.90;1.47;;;7.20;99.90;;;;;;1877262;75;25643;-89
2024/04/11 11:15:13;;;;;;;2.07;1.60;;;7.20;99.90;;;;;;1809748;77;25218;-89
2024/04/11 11:20:53;;;;;;;2.80;1.43;;;7.40;99.90;;;;;;1944869;72;27013;-89
2024/04/11 11:23:45;;;;;;;2.13;1.37;;;7.50;99.90;;;;;;1916811;73;25212;-87
2024/04/11 11:26:36;;;;;;;1.93;1.30;;;7.60;99.90;;;;;;1918921;73;25184;-87
2024/04/11 11:29:26;;;;;;;2.40;1.50;;;7.70;99.90;;;;;;1915644;75;25190;-88
2024/04/11 11:32:19;;;;;;;1.90;1.40;;;7.70;99.90;;;;;;1919045;73;25303;-88
2024/04/11 11:35:09;;;;;;;1.90;1.13;;;7.70;99.90;;;;;;1926527;73;25230;-88
2024/04/11 11:37:58;;;;;;;4.20;2.50;;;7.80;99.90;;;;;;1919988;73;25219;-87
2024/04/11 11:43:43;;;;;;;1.10;1.10;;;7.90;99.90;;;;;;1948237;72;26975;-87
2024/04/11 11:46:37;;;;;;;1.30;1.20;;;7.90;99.90;;;;;;1922992;73;25202;-87
2024/04/11 11:52:39;;;;;;;2.67;0.80;;;8.00;99.90;;;;;;2023587;69;27050;-87
2024/04/11 11:55:28;;;;;;;2.33;1.20;;;8.00;99.90;;;;;;1973032;71;25241;-87
2024/04/11 11:58:18;;;;;;;2.00;1.37;;;8.10;99.90;;;;;;1958627;72;25226;-87
2024/04/11 12:01:19;;;;;;;3.43;1.27;;;8.10;99.90;;;;;;1954109;72;25166;-87
2024/04/11 12:03:59;;;;;;;2.07;1.30;;;8.20;99.90;;;;;;1956464;72;25636;-87
2024/04/11 12:06:48;;;;;;;6.03;1.60;;;8.20;99.90;;;;;;1956474;73;25791;-87
2024/04/11 12:12:25;;;;;;;2.83;1.40;;;8.30;99.90;;;;;;1943506;72;27466;-87
2024/04/11 12:15:14;;;;;;;5.00;1.30;;;8.40;99.90;;;;;;1929413;73;25682;-87
2024/04/11 12:20:46;;;;;;;2.87;1.60;;;8.30;99.90;;;;;;1941046;72;27173;-87
2024/04/11 12:23:35;;;;;;;4.00;1.40;;;8.40;99.90;;;;;;1931684;73;25726;-87
2024/04/11 12:26:26;;;;;;;4.83;1.57;;;8.50;99.90;;;;;;1929462;73;25849;-88
2024/04/11 12:29:18;;;;;;;2.57;1.13;;;8.40;99.90;;;;;;1924264;73;25290;-88
2024/04/11 12:32:07;;;;;;;6.90;2.10;;;8.20;99.90;;;;;;1942956;73;25242;-88
2024/04/11 12:34:56;;;;;;;4.83;2.00;;;8.40;99.90;;;;;;1934999;73;25295;-88
2024/04/11 12:37:46;;;;;;;4.67;1.70;;;8.60;99.90;;;;;;1940256;73;25197;-88
2024/04/11 12:40:39;;;;;;;9.23;2.13;;;8.70;99.90;;;;;;1924266;73;25757;-88
2024/04/11 12:43:28;;;;;;;7.40;1.80;;;8.90;99.90;;;;;;1918699;73;25198;-88
2024/04/11 12:46:16;;;;;;;9.83;2.10;;;8.80;99.90;;;;;;1933921;73;25213;-88
2024/04/11 12:49:15;;;;;;;5.90;2.10;;;8.80;99.90;;;;;;1929009;73;25212;-88
2024/04/11 12:54:48;;;;;;;13.80;2.30;;;8.90;99.90;;;;;;1942027;72;26925;-88
2024/04/11 12:57:38;;;;;;;9.70;2.70;;;9.00;99.90;;;;;;1909463;75;25300;-87
2024/04/11 13:00:35;;;;;;;9.93;2.60;;;9.20;99.90;;;;;;1904957;74;25368;-87
2024/04/11 13:03:34;;;;;;;8.67;2.00;;;9.40;99.90;;;;;;1903101;75;25255;-87
2024/04/11 13:09:10;;;;;;;10.87;2.27;;;10.30;99.90;;;;;;1903132;74;27586;-88
2024/04/11 13:12:04;;;;;;;10.60;2.30;;;10.50;99.90;;;;;;1869580;76;25296;-88
2024/04/11 13:14:57;;;;;;;11.40;2.30;;;10.70;99.90;;;;;;1861060;76;25250;-86
2024/04/11 13:17:52;;;;;;;10.00;2.30;;;10.90;99.90;;;;;;1859398;76;25307;-86
2024/04/11 13:20:37;;;;;;;13.17;2.47;;;11.20;99.90;;;;;;1848768;75;25692;-89
2024/04/11 13:23:29;;;;;;;11.67;2.07;;;11.50;99.90;;;;;;1858009;75;25283;-88
2024/04/11 13:26:18;;;;;;;7.57;2.30;;;11.80;99.90;;;;;;1869342;76;25182;-87
2024/04/11 13:29:07;;;;;;;9.80;2.27;;;11.80;99.90;;;;;;1858423;76;25798;-87
2024/04/11 13:31:57;;;;;;;6.70;1.80;;;11.60;99.90;;;;;;1873270;75;25706;-87
2024/04/11 13:35:03;;;;;;;6.07;2.10;;;11.60;99.90;;;;;;1845856;75;25336;-87
2024/04/11 13:37:47;;;;;;;9.73;2.20;;;11.20;99.90;;;;;;1847543;76;25236;-87
2024/04/11 13:43:38;;;;;;;5.77;1.70;;;11.10;99.90;;;;;;1868121;76;25212;-88
2024/04/11 13:46:34;;;;;;;9.83;2.10;;;10.60;99.90;;;;;;1876367;75;25203;-88
2024/04/11 13:49:30;;;;;;;6.43;1.80;;;10.60;99.90;;;;;;1858942;75;25311;-88
2024/04/11 13:52:22;;;;;;;8.60;2.03;;;10.70;99.90;;;;;;1855596;75;25684;-88
2024/04/11 13:55:10;;;;;;;9.20;1.87;;;10.90;99.90;;;;;;1862421;76;25266;-88
2024/04/11 13:57:59;;;;;;;10.30;2.37;;;11.10;99.90;;;;;;1851494;75;25181;-88
2024/04/11 14:00:51;;;;;;;8.70;1.90;;;11.20;99.90;;;;;;1860284;75;25250;-87
2024/04/11 14:03:44;;;;;;;8.30;2.30;;;11.20;99.90;;;;;;1858153;75;25292;-88
2024/04/11 14:09:17;;;;;;;12.27;3.43;;;10.90;99.90;;;;;;1900868;74;27076;-87
2024/04/11 14:12:04;;;;;;;10.70;2.63;;;10.60;99.90;;;;;;1835896;76;25309;-87
2024/04/11 14:14:53;;;;;;;12.90;2.57;;;10.50;99.90;;;;;;1857796;77;25323;-87
2024/04/11 14:17:44;;;;;;;12.47;2.80;;;10.50;99.90;;;;;;1851916;77;25751;-87
2024/04/11 14:20:31;;;;;;;11.43;2.57;;;10.30;99.90;;;;;;1863615;77;26741;-87
2024/04/11 14:23:44;;;;;;;10.23;2.20;;;10.20;99.90;;;;;;1867099;77;25788;-87
2024/04/11 14:26:24;;;;;;;19.73;2.87;;;10.10;99.90;;;;;;1863901;77;25345;-87
2024/04/11 14:29:06;;;;;;;13.03;2.23;;;10.20;99.90;;;;;;1858448;76;25398;-87
2024/04/11 14:31:54;;;;;;;13.67;2.60;;;10.30;99.90;;;;;;1848143;76;25329;-87
2024/04/11 14:37:56;;;;;;;13.17;2.63;;;10.20;99.90;;;;;;1827432;76;25269;-87
2024/04/11 14:40:45;;;;;;;8.93;2.50;;;10.20;99.90;;;;;;1869849;76;25530;-87
2024/04/11 14:43:31;;;;;;;16.73;2.60;;;10.30;99.90;;;;;;1845713;77;25560;-87
2024/04/11 14:46:24;;;;;;;11.00;2.10;;;10.40;99.90;;;;;;1839611;76;25272;-88
2024/04/11 14:52:12;;;;;;;9.90;2.43;;;10.70;99.90;;;;;;1937690;72;27063;-87
2024/04/11 14:54:59;;;;;;;12.70;2.13;;;10.60;99.90;;;;;;1905080;75;25234;-87
2024/04/11 15:00:47;;;;;;;10.93;2.33;;;10.70;99.90;;;;;;1948069;72;28260;-88
2024/04/11 15:06:23;;;;;;;11.57;2.10;;;10.50;99.90;;;;;;1944446;72;27183;-87
2024/04/11 15:11:59;;;;;;;12.20;1.90;;;10.40;99.90;;;;;;1961257;72;27088;-88
2024/04/11 15:14:47;;;;;;;15.90;2.30;;;10.60;99.90;;;;;;1939926;73;25225;-89
2024/04/11 15:17:41;;;;;;;16.27;2.40;;;10.60;99.90;;;;;;1945975;72;25209;-89
2024/04/11 15:20:32;;;;;;;6.50;1.80;;;10.70;99.90;;;;;;1949764;72;25765;-88
2024/04/11 15:23:17;;;;;;;10.07;2.13;;;10.80;99.90;;;;;;1941972;73;25284;-88
2024/04/11 15:26:12;;;;;;;12.23;1.77;;;10.80;99.90;;;;;;1937989;72;25284;-88
2024/04/11 15:29:01;;;;;;;15.53;2.80;;;10.70;99.90;;;;;;1934661;72;25186;-87
2024/04/11 15:32:04;;;;;;;18.33;2.83;;;10.40;99.90;;;;;;1934742;73;25190;-87
2024/04/11 15:34:41;;;;;;;15.10;2.67;;;10.10;99.90;;;;;;1923183;73;25183;-87
2024/04/11 15:37:29;;;;;;;17.60;2.33;;;10.10;99.90;;;;;;1920558;72;25711;-88
2024/04/11 15:43:06;;;;;;;14.97;2.77;;;10.10;99.90;;;;;;1947880;72;27443;-87
2024/04/11 15:48:56;;;;;;;13.40;2.27;;;10.10;99.90;;;;;;1959055;72;26984;-87
2024/04/11 15:54:37;;;;;;;19.13;2.57;;;10.50;99.90;;;;;;1948548;72;27060;-87
2024/04/11 15:57:11;;;;;;;11.00;1.80;;;10.80;99.90;;;;;;1905087;73;25704;-87
2024/04/11 16:00:10;;;;;;;14.80;2.40;;;10.90;99.90;;;;;;1899199;75;25241;-87
2024/04/11 16:02:51;;;;;;;11.83;2.27;;;11.00;99.90;;;;;;1898201;74;25317;-87
2024/04/11 16:05:40;;;;;;;13.63;2.07;;;11.00;99.90;;;;;;1909054;73;25394;-87
2024/04/11 16:08:34;;;;;;;8.03;1.60;;;11.10;99.90;;;;;;1914390;74;25663;-87
2024/04/11 16:11:20;;;;;;;11.57;1.70;;;11.20;99.90;;;;;;1916566;73;25246;-89
2024/04/11 16:14:08;;;;;;;6.97;1.30;;;11.20;99.90;;;;;;1906863;74;25278;-88
2024/04/11 16:17:01;;;;;;;6.70;1.60;;;11.40;99.90;;;;;;1906367;73;25250;-87
2024/04/11 16:19:47;;;;;;;7.07;1.43;;;11.60;99.90;;;;;;1916027;75;25289;-89
2024/04/11 16:25:23;;;;;;;3.80;1.10;;;12.10;99.90;;;;;;1943835;72;27688;-87
2024/04/11 16:28:15;;;;;;;10.60;1.70;;;12.10;99.90;;;;;;1923429;73;25174;-87
2024/04/11 16:37:09;;;;;;;5.60;1.43;;;12.10;99.90;;;;;;1962579;72;27384;-90
2024/04/11 16:42:37;;;;;;;7.40;1.07;;;12.70;99.90;;;;;;1947526;72;28098;-88
2024/04/11 16:45:30;;;;;;;4.33;1.17;;;12.80;99.90;;;;;;1879422;76;25257;-88
2024/04/11 16:48:20;;;;;;;5.20;1.27;;;12.70;99.90;;;;;;1826481;78;25270;-88
2024/04/11 16:51:10;;;;;;;5.33;1.30;;;12.70;99.90;;;;;;1935601;73;25256;-89
2024/04/11 16:54:18;;;;;;;6.77;1.20;;;12.80;99.90;;;;;;1884247;75;25769;-89
2024/04/11 16:57:02;;;;;;;7.97;1.30;;;12.80;99.90;;;;;;1839197;77;25349;-88
2024/04/11 16:59:52;;;;;;;4.90;1.20;;;12.80;99.90;;;;;;1876611;75;25230;-88
2024/04/11 17:02:41;;;;;;;4.77;1.20;;;12.80;99.90;;;;;;1818578;77;25295;-88
2024/04/11 17:19:28;;;;;;;8.47;1.70;;;12.80;99.90;;;;;;1940880;72;26715;-88
2024/04/11 17:24:38;;;;;;;7.23;1.20;;;12.60;99.90;;;;;;1948729;72;27048;-88
2024/04/11 17:27:27;;;;;;;12.53;1.70;;;12.00;99.90;;;;;;1915400;74;25673;-86
2024/04/11 17:30:24;;;;;;;5.73;1.40;;;11.30;99.90;;;;;;1904207;73;25802;-86
2024/04/11 17:33:19;;;;;;;4.33;1.10;;;11.10;99.90;;;;;;1893907;73;25222;-86
2024/04/11 17:36:33;;;;;;;8.90;1.50;;;11.10;99.90;;;;;;1915271;75;25622;-86
2024/04/11 17:42:14;;;;;;;6.73;1.60;;;11.00;99.90;;;;;;1887699;73;25232;-87
2024/04/11 17:45:04;;;;;;;4.43;1.50;;;11.00;99.90;;;;;;1897802;73;25229;-87
2024/04/11 17:47:53;;;;;;;9.13;1.60;;;11.00;99.90;;;;;;1912680;75;25229;-87